createdAt,value
2022-12-18T00:01:37.975Z,32.58
2022-12-18T00:04:21.015Z,32.40
2022-12-18T00:06:53.984Z,32.47
2022-12-18T00:09:25.573Z,32.11
2022-12-18T00:14:47.350Z,32.81
2022-12-18T00:17:18.914Z,32.16
2022-12-18T00:19:50.468Z,32.47
2022-12-18T00:22:21.983Z,32.13
2022-12-18T00:24:53.545Z,31.65
2022-12-18T00:27:25.271Z,33.58
2022-12-18T00:29:56.850Z,31.97
2022-12-18T00:32:28.380Z,32.30
2022-12-18T00:35:00.232Z,32.09
2022-12-18T00:37:31.820Z,32.01
2022-12-18T00:40:04.455Z,31.49
2022-12-18T00:42:36.042Z,32.61
2022-12-18T00:45:12.632Z,31.70
2022-12-18T00:47:44.826Z,32.48
2022-12-18T00:50:16.549Z,32.37
2022-12-18T00:52:48.888Z,32.52
2022-12-18T00:55:20.538Z,31.01
2022-12-18T00:57:53.213Z,31.43
2022-12-18T01:00:24.811Z,31.44
2022-12-18T01:02:56.708Z,32.04
2022-12-18T01:05:30.004Z,32.94
2022-12-18T01:08:01.598Z,33.10
2022-12-18T01:10:33.219Z,33.14
2022-12-18T01:13:04.830Z,31.97
2022-12-18T01:15:36.647Z,31.78
2022-12-18T01:18:08.360Z,32.85
2022-12-18T01:20:39.955Z,32.77
2022-12-18T01:23:11.562Z,32.87
2022-12-18T01:25:43.168Z,33.29
2022-12-18T01:28:15.153Z,33.10
2022-12-18T01:30:46.830Z,33.18
2022-12-18T01:33:18.399Z,32.11
2022-12-18T01:35:49.961Z,31.98
2022-12-18T01:38:21.527Z,32.74
2022-12-18T01:40:58.844Z,31.72
2022-12-18T01:43:46.980Z,32.10
2022-12-18T01:46:20.777Z,33.00
2022-12-18T01:49:02.081Z,32.97
2022-12-18T01:51:34.144Z,32.45
2022-12-18T01:54:05.700Z,32.13
2022-12-18T01:56:37.770Z,32.75
2022-12-18T01:59:13.100Z,31.53
2022-12-18T02:01:45.264Z,33.54
2022-12-18T02:04:25.704Z,32.98
2022-12-18T02:07:09.293Z,32.94
2022-12-18T02:09:54.780Z,33.41
2022-12-18T02:12:45.706Z,32.94
2022-12-18T02:15:29.219Z,31.86
2022-12-18T02:18:10.552Z,32.75
2022-12-18T02:20:47.593Z,33.78
2022-12-18T02:23:37.763Z,33.14
2022-12-18T02:26:28.483Z,34.25
2022-12-18T02:29:09.140Z,32.10
2022-12-18T02:31:52.454Z,33.14
2022-12-18T02:34:30.886Z,32.77
2022-12-18T02:37:09.465Z,32.92
2022-12-18T02:39:47.576Z,33.11
2022-12-18T02:42:20.847Z,33.95
2022-12-18T02:44:53.464Z,33.20
2022-12-18T02:47:34.374Z,33.36
2022-12-18T02:50:32.403Z,34.65
2022-12-18T02:53:18.366Z,33.34
2022-12-18T02:56:14.665Z,34.29
2022-12-18T02:59:00.109Z,33.85
2022-12-18T03:01:48.687Z,33.59
2022-12-18T03:04:50.433Z,33.64
2022-12-18T03:07:34.189Z,35.22
2022-12-18T03:10:12.449Z,34.64
2022-12-18T03:12:53.614Z,32.16
2022-12-18T03:15:35.054Z,33.54
2022-12-18T03:18:24.010Z,33.58
2022-12-18T03:21:04.592Z,33.88
2022-12-18T03:23:45.127Z,32.98
2022-12-18T03:26:23.667Z,33.65
2022-12-18T03:29:24.088Z,32.89
2022-12-18T03:32:04.129Z,33.48
2022-12-18T03:34:41.900Z,33.67
2022-12-18T03:37:16.335Z,34.28
2022-12-18T03:39:48.004Z,33.90
2022-12-18T03:42:29.548Z,34.07
2022-12-18T03:45:23.169Z,34.37
2022-12-18T03:48:01.485Z,34.77
2022-12-18T03:50:40.561Z,35.58
2022-12-18T03:53:40.551Z,33.61
2022-12-18T03:56:17.173Z,34.36
2022-12-18T03:58:53.557Z,35.63
2022-12-18T04:01:40.815Z,33.24
2022-12-18T04:04:15.337Z,32.74
2022-12-18T04:06:51.275Z,33.47
2022-12-18T04:09:25.364Z,34.00
2022-12-18T04:11:57.926Z,34.49
2022-12-18T04:14:30.186Z,35.10
2022-12-18T04:17:03.538Z,34.40
2022-12-18T04:19:37.803Z,34.66
2022-12-18T04:22:11.340Z,33.47
2022-12-18T04:24:48.182Z,32.82
2022-12-18T04:27:27.984Z,33.13
2022-12-18T04:30:00.100Z,32.84
2022-12-18T04:32:31.867Z,32.15
2022-12-18T04:35:05.965Z,32.16
2022-12-18T04:37:38.169Z,32.21
2022-12-18T04:40:11.387Z,31.74
2022-12-18T04:42:47.407Z,31.91
2022-12-18T04:45:19.018Z,32.21
2022-12-18T04:47:50.581Z,32.38
2022-12-18T04:50:22.209Z,32.56
2022-12-18T04:52:54.202Z,32.47
2022-12-18T04:55:25.962Z,31.98
2022-12-18T04:57:57.493Z,33.87
2022-12-18T05:00:29.048Z,32.27
2022-12-18T05:03:02.251Z,31.40
2022-12-18T05:05:36.384Z,31.50
2022-12-18T05:08:07.986Z,30.74
2022-12-18T05:10:39.492Z,31.56
2022-12-18T05:13:11.357Z,30.98
2022-12-18T05:15:43.029Z,31.17
2022-12-18T05:18:14.645Z,32.16
2022-12-18T05:20:46.156Z,31.36
2022-12-18T05:23:18.144Z,30.86
2022-12-18T05:25:56.497Z,31.87
2022-12-18T05:28:30.352Z,31.17
2022-12-18T05:31:04.484Z,31.82
2022-12-18T05:33:36.973Z,31.41
2022-12-18T05:36:10.278Z,31.46
2022-12-18T05:38:42.235Z,31.46
2022-12-18T05:41:13.849Z,30.80
2022-12-18T05:43:45.409Z,30.60
2022-12-18T05:46:18.370Z,31.51
2022-12-18T05:48:49.937Z,30.68
2022-12-18T05:51:23.107Z,30.92
2022-12-18T05:53:54.646Z,30.89
2022-12-18T05:56:26.478Z,30.05
2022-12-18T05:58:58.033Z,30.34
2022-12-18T06:01:29.611Z,29.86
2022-12-18T06:04:01.236Z,29.97
2022-12-18T06:06:33.426Z,29.89
2022-12-18T06:09:05.392Z,29.51
2022-12-18T06:11:38.408Z,28.47
2022-12-18T06:14:10.815Z,29.18
2022-12-18T06:16:42.401Z,28.04
2022-12-18T06:19:16.796Z,27.95
2022-12-18T06:21:48.426Z,28.70
2022-12-18T06:24:20.010Z,27.52
2022-12-18T06:26:51.629Z,27.05
2022-12-18T06:29:23.207Z,27.46
2022-12-18T06:31:54.785Z,28.18
2022-12-18T06:34:27.056Z,27.82
2022-12-18T06:36:59.000Z,28.26
2022-12-18T06:39:31.401Z,27.42
2022-12-18T06:42:04.459Z,28.46
2022-12-18T06:44:36.047Z,28.67
2022-12-18T06:47:07.559Z,27.92
2022-12-18T06:49:39.136Z,28.37
2022-12-18T06:52:10.786Z,29.27
2022-12-18T06:54:42.293Z,28.69
2022-12-18T06:57:13.819Z,29.36
2022-12-18T06:59:45.353Z,29.54
2022-12-18T07:02:17.002Z,30.40
2022-12-18T07:04:48.644Z,30.48
2022-12-18T07:07:20.451Z,30.32
2022-12-18T07:09:52.356Z,29.70
2022-12-18T07:12:23.969Z,30.80
2022-12-18T07:14:55.642Z,30.40
2022-12-18T07:17:27.287Z,30.39
2022-12-18T07:19:58.843Z,30.14
2022-12-18T07:22:30.844Z,30.11
2022-12-18T07:25:02.431Z,30.39
2022-12-18T07:27:33.992Z,30.08
2022-12-18T07:30:06.550Z,30.53
2022-12-18T07:32:38.151Z,29.88
2022-12-18T07:35:09.687Z,28.72
2022-12-18T07:37:41.206Z,29.68
2022-12-18T07:40:13.154Z,29.79
2022-12-18T07:42:44.854Z,29.05
2022-12-18T07:45:16.539Z,29.18
2022-12-18T07:47:48.068Z,29.46
2022-12-18T07:50:20.147Z,29.23
2022-12-18T07:52:51.822Z,29.06
2022-12-18T07:55:23.394Z,30.89
2022-12-18T07:57:59.400Z,29.78
2022-12-18T08:00:32.397Z,29.97
2022-12-18T08:03:04.141Z,29.47
2022-12-18T08:05:35.735Z,30.25
2022-12-18T08:08:07.355Z,30.66
2022-12-18T08:10:39.371Z,30.71
2022-12-18T08:13:10.899Z,30.32
2022-12-18T08:15:42.493Z,30.60
2022-12-18T08:18:14.576Z,30.07
2022-12-18T08:20:46.260Z,30.13
2022-12-18T08:23:17.946Z,30.78
2022-12-18T08:25:49.608Z,29.64
2022-12-18T08:28:21.117Z,28.70
2022-12-18T08:30:53.616Z,29.21
2022-12-18T08:33:25.418Z,29.63
2022-12-18T08:35:56.999Z,29.21
2022-12-18T08:38:29.212Z,29.77
2022-12-18T08:41:05.168Z,29.29
2022-12-18T08:43:37.014Z,29.49
2022-12-18T08:46:08.920Z,30.21
2022-12-18T08:48:40.505Z,30.39
2022-12-18T08:51:12.130Z,31.11
2022-12-18T08:53:44.670Z,30.00
2022-12-18T08:56:16.911Z,30.30
2022-12-18T08:58:48.495Z,30.05
2022-12-18T09:01:20.707Z,29.73
2022-12-18T09:03:52.357Z,30.14
2022-12-18T09:06:24.422Z,29.92
2022-12-18T09:08:56.034Z,30.20
2022-12-18T09:11:29.843Z,29.60
2022-12-18T09:14:02.458Z,29.66
2022-12-18T09:16:34.457Z,30.03
2022-12-18T09:19:06.575Z,29.41
2022-12-18T09:21:38.226Z,29.55
2022-12-18T09:24:13.719Z,28.67
2022-12-18T09:26:47.331Z,27.98
2022-12-18T09:29:19.270Z,28.89
2022-12-18T09:31:50.846Z,29.50
2022-12-18T09:34:22.849Z,29.26
2022-12-18T09:36:54.419Z,28.45
2022-12-18T09:39:26.026Z,28.27
2022-12-18T09:41:59.689Z,28.28
2022-12-18T09:44:44.505Z,27.56
2022-12-18T09:47:28.500Z,27.33
2022-12-18T09:50:04.896Z,28.21
2022-12-18T09:52:46.072Z,27.37
2022-12-18T09:55:24.598Z,26.10
2022-12-18T09:58:06.731Z,25.19
2022-12-18T10:00:39.298Z,24.93
2022-12-18T10:03:14.093Z,24.35
2022-12-18T10:05:58.069Z,25.04
2022-12-18T10:08:44.632Z,25.31
2022-12-18T10:12:13.908Z,24.54
2022-12-18T10:15:00.738Z,24.87
2022-12-18T10:17:50.357Z,24.71
2022-12-18T10:20:49.700Z,24.20
2022-12-18T10:23:43.649Z,24.58
2022-12-18T10:26:19.623Z,24.28
2022-12-18T10:28:54.549Z,23.75
2022-12-18T10:31:26.691Z,25.67
2022-12-18T10:33:58.287Z,26.50
2022-12-18T10:36:30.232Z,26.33
2022-12-18T10:39:17.608Z,26.01
2022-12-18T10:41:49.368Z,25.18
2022-12-18T10:44:25.359Z,25.23
2022-12-18T10:47:10.110Z,25.65
2022-12-18T10:49:51.268Z,25.94
2022-12-18T10:52:26.029Z,25.21
2022-12-18T10:55:04.814Z,25.13
2022-12-18T10:57:40.034Z,24.89
2022-12-18T11:00:31.612Z,25.82
2022-12-18T11:03:03.438Z,25.74
2022-12-18T11:05:35.641Z,25.28
2022-12-18T11:08:21.604Z,24.09
2022-12-18T11:10:53.183Z,24.29
2022-12-18T11:13:29.953Z,24.31
2022-12-18T11:16:01.868Z,24.63
2022-12-18T11:18:36.444Z,24.82
2022-12-18T11:21:12.725Z,24.74
2022-12-18T11:23:54.842Z,25.07
2022-12-18T11:26:36.116Z,24.78
2022-12-18T11:29:11.671Z,25.88
2022-12-18T11:31:43.291Z,25.70
2022-12-18T11:34:31.352Z,24.35
2022-12-18T11:37:05.304Z,24.78
2022-12-18T11:40:12.103Z,24.66
2022-12-18T11:42:55.499Z,24.64
2022-12-18T11:45:29.380Z,25.01
2022-12-18T11:48:18.876Z,24.25
2022-12-18T11:50:54.232Z,24.77
2022-12-18T11:53:27.762Z,24.96
2022-12-18T11:56:20.537Z,24.89
2022-12-18T11:58:58.853Z,23.36
2022-12-18T12:01:44.688Z,23.83
2022-12-18T12:04:34.985Z,24.19
2022-12-18T12:07:29.319Z,23.94
2022-12-18T12:10:24.512Z,23.50
2022-12-18T12:13:12.921Z,23.39
2022-12-18T12:16:05.145Z,24.61
2022-12-18T12:18:52.100Z,23.10
2022-12-18T12:21:43.779Z,22.77
2022-12-18T12:24:47.900Z,23.11
2022-12-18T12:27:53.557Z,23.26
2022-12-18T12:30:48.668Z,22.76
2022-12-18T12:33:59.413Z,21.94
2022-12-18T12:36:47.697Z,21.32
2022-12-18T12:39:33.544Z,22.08
2022-12-18T12:42:13.430Z,21.74
2022-12-18T12:44:56.267Z,22.10
2022-12-18T12:47:42.956Z,21.26
2022-12-18T12:50:19.448Z,21.24
2022-12-18T12:52:58.183Z,21.00
2022-12-18T12:55:31.146Z,20.08
2022-12-18T12:58:20.065Z,19.80
2022-12-18T13:01:05.312Z,19.53
2022-12-18T13:03:49.946Z,19.00
2022-12-18T13:06:25.434Z,20.61
2022-12-18T13:09:00.269Z,18.64
2022-12-18T13:11:43.272Z,19.15
2022-12-18T13:14:24.498Z,19.37
2022-12-18T13:17:22.499Z,18.94
2022-12-18T13:20:11.069Z,18.80
2022-12-18T13:22:50.296Z,18.82
2022-12-18T13:25:38.932Z,19.92
2022-12-18T13:28:14.652Z,19.33
2022-12-18T13:30:57.428Z,21.72
2022-12-18T13:33:29.228Z,21.60
2022-12-18T13:36:27.675Z,22.31
2022-12-18T13:39:18.431Z,23.54
2022-12-18T13:42:14.811Z,22.66
2022-12-18T13:44:47.976Z,23.16
2022-12-18T13:47:35.649Z,22.81
2022-12-18T13:50:24.671Z,23.05
2022-12-18T13:52:56.373Z,22.67
2022-12-18T13:55:28.078Z,22.57
2022-12-18T13:58:07.209Z,22.54
2022-12-18T14:00:43.593Z,22.73
2022-12-18T14:03:28.689Z,23.17
2022-12-18T14:06:06.980Z,23.28
2022-12-18T14:08:42.709Z,23.30
2022-12-18T14:11:23.830Z,22.84
2022-12-18T14:13:58.244Z,22.41
2022-12-18T14:16:31.138Z,21.96
2022-12-18T14:19:05.206Z,22.21
2022-12-18T14:21:50.881Z,22.59
2022-12-18T14:24:22.957Z,22.07
2022-12-18T14:26:54.551Z,21.43
2022-12-18T14:29:31.514Z,22.82
2022-12-18T14:32:18.125Z,22.34
2022-12-18T14:34:54.644Z,22.63
2022-12-18T14:37:27.780Z,22.34
2022-12-18T14:40:08.745Z,21.15
2022-12-18T14:42:43.009Z,22.20
2022-12-18T14:45:42.181Z,24.27
2022-12-18T14:48:23.675Z,26.48
2022-12-18T14:51:19.691Z,24.70
2022-12-18T14:53:58.584Z,24.06
2022-12-18T14:56:34.300Z,25.05
2022-12-18T14:59:23.848Z,26.20
2022-12-18T15:02:21.084Z,26.50
2022-12-18T15:05:12.734Z,26.96
2022-12-18T15:07:50.845Z,26.32
2022-12-18T15:10:28.624Z,27.21
2022-12-18T15:13:00.117Z,26.74
2022-12-18T15:15:34.996Z,26.90
2022-12-18T15:18:09.810Z,26.86
2022-12-18T15:20:53.153Z,26.23
2022-12-18T15:23:31.774Z,26.83
2022-12-18T15:26:10.072Z,26.26
2022-12-18T15:28:51.859Z,26.37
2022-12-18T15:31:32.026Z,25.69
2022-12-18T15:34:09.357Z,25.37
2022-12-18T15:36:41.268Z,26.62
2022-12-18T15:39:14.248Z,25.74
2022-12-18T15:41:46.146Z,26.36
2022-12-18T15:44:25.623Z,26.33
2022-12-18T15:46:58.110Z,25.98
2022-12-18T15:49:34.929Z,27.39
2022-12-18T15:52:07.155Z,26.28
2022-12-18T15:54:38.849Z,27.10
2022-12-18T15:57:11.778Z,27.63
2022-12-18T15:59:43.405Z,27.36
2022-12-18T16:02:19.299Z,26.91
2022-12-18T16:04:52.941Z,26.21
2022-12-18T16:07:25.077Z,26.80
2022-12-18T16:09:57.249Z,27.91
2022-12-18T16:12:29.087Z,28.56
2022-12-18T16:15:01.373Z,27.37
2022-12-18T16:17:33.356Z,26.50
2022-12-18T16:20:05.694Z,27.64
2022-12-18T16:22:37.343Z,28.31
2022-12-18T16:25:22.939Z,27.36
2022-12-18T16:27:56.155Z,26.97
2022-12-18T16:30:32.737Z,26.47
2022-12-18T16:33:11.403Z,27.82
2022-12-18T16:35:43.234Z,27.58
2022-12-18T16:38:15.011Z,26.75
2022-12-18T16:40:46.635Z,27.02
2022-12-18T16:43:18.367Z,27.02
2022-12-18T16:45:51.427Z,27.71
2022-12-18T16:48:23.708Z,27.65
2022-12-18T16:51:05.085Z,27.72
2022-12-18T16:53:36.688Z,27.26
2022-12-18T16:56:08.262Z,27.25
2022-12-18T16:58:39.852Z,27.78
2022-12-18T17:01:13.282Z,27.38
2022-12-18T17:03:45.346Z,27.57
2022-12-18T17:06:18.961Z,27.68
2022-12-18T17:09:02.099Z,28.09
2022-12-18T17:11:35.109Z,27.82
2022-12-18T17:14:10.250Z,27.86
2022-12-18T17:16:42.737Z,27.83
2022-12-18T17:19:17.303Z,27.51
2022-12-18T17:21:50.629Z,27.47
2022-12-18T17:24:22.341Z,28.20
2022-12-18T17:26:53.945Z,28.67
2022-12-18T17:29:25.569Z,29.25
2022-12-18T17:32:00.324Z,31.94
2022-12-18T17:34:32.199Z,29.84
2022-12-18T17:37:03.739Z,30.02
2022-12-18T17:39:35.361Z,31.12
2022-12-18T17:42:06.922Z,31.92
2022-12-18T17:44:49.756Z,31.51
2022-12-18T17:47:21.370Z,29.84
2022-12-18T17:49:52.972Z,30.79
2022-12-18T17:52:26.265Z,31.49
2022-12-18T17:54:57.945Z,30.10
2022-12-18T17:57:29.525Z,29.56
2022-12-18T18:00:01.094Z,28.81
2022-12-18T18:02:32.779Z,29.42
2022-12-18T18:05:05.482Z,28.44
2022-12-18T18:07:37.056Z,28.69
2022-12-18T18:10:09.045Z,29.83
2022-12-18T18:12:40.601Z,30.25
2022-12-18T18:15:12.212Z,29.67
2022-12-18T18:17:44.707Z,29.82
2022-12-18T18:20:20.815Z,31.51
2022-12-18T18:22:54.250Z,30.15
2022-12-18T18:25:25.852Z,30.74
2022-12-18T18:27:57.438Z,29.98
2022-12-18T18:30:28.989Z,30.77
2022-12-18T18:33:00.767Z,31.56
2022-12-18T18:35:53.456Z,31.48
2022-12-18T18:38:24.070Z,31.25
2022-12-18T18:41:03.893Z,31.12
2022-12-18T18:43:35.521Z,31.42
2022-12-18T18:46:12.365Z,31.10
2022-12-18T18:48:44.129Z,30.08
2022-12-18T18:51:21.547Z,29.44
2022-12-18T18:53:53.821Z,29.76
2022-12-18T18:56:56.586Z,29.56
2022-12-18T18:59:17.825Z,30.46
2022-12-18T19:01:49.888Z,30.53
2022-12-18T19:04:21.509Z,30.28
2022-12-18T19:06:53.300Z,31.07
2022-12-18T19:09:27.596Z,31.52
2022-12-18T19:12:00.904Z,29.19
2022-12-18T19:14:32.985Z,29.76
2022-12-18T19:17:05.845Z,29.56
2022-12-18T19:19:38.403Z,29.47
2022-12-18T19:22:10.067Z,29.48
2022-12-18T19:24:41.893Z,30.46
2022-12-18T19:27:13.588Z,31.32
2022-12-18T19:29:45.101Z,30.16
2022-12-18T19:32:16.877Z,30.89
2022-12-18T19:34:48.457Z,30.69
2022-12-18T19:37:21.057Z,30.25
2022-12-18T19:39:52.827Z,30.91
2022-12-18T19:42:29.299Z,30.26
2022-12-18T19:45:03.850Z,30.55
2022-12-18T19:47:35.546Z,30.64
2022-12-18T19:50:14.621Z,30.91
2022-12-18T19:52:46.447Z,30.79
2022-12-18T19:55:18.230Z,30.34
2022-12-18T19:57:49.894Z,30.94
2022-12-18T20:00:21.494Z,30.33
2022-12-18T20:02:56.745Z,32.27
2022-12-18T20:05:34.319Z,31.31
2022-12-18T20:08:05.884Z,31.07
2022-12-18T20:11:20.746Z,31.78
2022-12-18T20:13:54.275Z,33.24
2022-12-18T20:16:25.913Z,32.05
2022-12-18T20:18:58.983Z,31.51
2022-12-18T20:21:30.948Z,30.95
2022-12-18T20:24:02.576Z,30.91
2022-12-18T20:26:34.313Z,31.20
2022-12-18T20:29:06.262Z,31.33
2022-12-18T20:31:37.852Z,30.89
2022-12-18T20:34:09.519Z,31.48
2022-12-18T20:36:42.124Z,31.19
2022-12-18T20:39:13.814Z,31.39
2022-12-18T20:41:46.060Z,30.92
2022-12-18T20:44:22.878Z,31.63
2022-12-18T20:46:57.692Z,31.85
2022-12-18T20:49:29.447Z,31.67
2022-12-18T20:52:00.981Z,32.51
2022-12-18T20:54:32.612Z,31.70
2022-12-18T20:57:04.913Z,32.33
2022-12-18T20:59:36.499Z,31.62
2022-12-18T21:02:13.363Z,31.22
2022-12-18T21:04:45.208Z,32.21
2022-12-18T21:07:16.785Z,32.13
2022-12-18T21:09:48.361Z,33.16
2022-12-18T21:12:20.234Z,32.99
2022-12-18T21:14:51.909Z,32.26
2022-12-18T21:17:23.475Z,32.00
2022-12-18T21:19:57.553Z,31.89
2022-12-18T21:22:29.882Z,31.10
2022-12-18T21:25:01.442Z,30.75
2022-12-18T21:27:33.331Z,29.65
2022-12-18T21:30:05.701Z,29.94
2022-12-18T21:32:37.327Z,30.71
2022-12-18T21:35:09.267Z,30.15
2022-12-18T21:37:40.909Z,30.80
2022-12-18T21:40:13.050Z,31.60
2022-12-18T21:42:44.858Z,30.88
2022-12-18T21:45:16.493Z,30.91
2022-12-18T21:47:48.117Z,30.41
2022-12-18T21:50:19.660Z,30.43
2022-12-18T21:52:51.222Z,30.36
2022-12-18T21:55:22.748Z,31.56
2022-12-18T21:57:54.324Z,31.24
2022-12-18T22:00:25.861Z,32.03
2022-12-18T22:03:01.203Z,31.82
2022-12-18T22:05:49.693Z,30.91
2022-12-18T22:08:43.052Z,29.27
2022-12-18T22:11:15.289Z,29.90
2022-12-18T22:13:48.928Z,29.94
2022-12-18T22:16:20.555Z,30.02
2022-12-18T22:18:52.264Z,29.62
2022-12-18T22:21:29.574Z,30.09
2022-12-18T22:24:15.005Z,29.68
2022-12-18T22:26:47.284Z,29.91
2022-12-18T22:29:24.160Z,30.69
2022-12-18T22:31:55.802Z,30.30
2022-12-18T22:34:27.370Z,30.16
2022-12-18T22:36:58.943Z,30.05
2022-12-18T22:39:31.799Z,30.18
2022-12-18T22:42:03.929Z,29.54
2022-12-18T22:44:35.654Z,29.34
2022-12-18T22:47:07.587Z,29.76
2022-12-18T22:49:39.456Z,29.30
2022-12-18T22:52:11.595Z,30.44
2022-12-18T22:54:43.156Z,28.87
2022-12-18T22:57:14.738Z,29.01
2022-12-18T22:59:46.340Z,29.43
2022-12-18T23:02:18.622Z,29.85
2022-12-18T23:04:50.410Z,29.51
2022-12-18T23:07:22.015Z,30.54
2022-12-18T23:09:58.416Z,28.54
2022-12-18T23:12:32.408Z,30.19
2022-12-18T23:15:06.541Z,29.60
2022-12-18T23:17:38.095Z,30.66
2022-12-18T23:20:11.726Z,29.59
2022-12-18T23:22:43.301Z,29.09
2022-12-18T23:25:14.831Z,29.85
2022-12-18T23:27:46.413Z,29.38
2022-12-18T23:30:18.203Z,29.94
2022-12-18T23:32:49.875Z,29.36
2022-12-18T23:35:21.409Z,29.10
2022-12-18T23:38:00.631Z,29.57
2022-12-18T23:40:32.369Z,29.12
2022-12-18T23:43:03.905Z,29.70
2022-12-18T23:45:38.248Z,28.86
2022-12-18T23:48:09.827Z,28.85
2022-12-18T23:50:41.372Z,28.99
2022-12-18T23:53:13.423Z,29.32
2022-12-18T23:55:45.667Z,29.63
2022-12-18T23:58:20.939Z,28.51
